createdAt,value
2022-10-31T00:00:21.100Z,75.42
2022-10-31T00:01:21.242Z,75.42
2022-10-31T00:02:21.440Z,75.73
2022-10-31T00:03:21.589Z,75.42
2022-10-31T00:04:21.740Z,75.62
2022-10-31T00:05:21.933Z,75.42
2022-10-31T00:06:22.109Z,75.32
2022-10-31T00:07:22.299Z,75.42
2022-10-31T00:08:22.501Z,75.32
2022-10-31T00:09:22.649Z,76.03
2022-10-31T00:10:22.840Z,76.13
2022-10-31T00:11:22.988Z,75.73
2022-10-31T00:12:23.188Z,75.82
2022-10-31T00:13:23.361Z,75.73
2022-10-31T00:14:23.512Z,75.73
2022-10-31T00:15:23.692Z,75.52
2022-10-31T00:16:23.879Z,76.03
2022-10-31T00:17:24.029Z,76.74
2022-10-31T00:18:24.230Z,76.64
2022-10-31T00:19:24.381Z,76.64
2022-10-31T00:20:24.569Z,76.03
2022-10-31T00:21:24.750Z,75.82
2022-10-31T00:22:24.938Z,75.52
2022-10-31T00:23:25.140Z,77.14
2022-10-31T00:24:25.289Z,76.94
2022-10-31T00:25:25.479Z,76.64
2022-10-31T00:26:25.669Z,76.43
2022-10-31T00:27:25.858Z,76.03
2022-10-31T00:28:26.028Z,75.82
2022-10-31T00:29:26.180Z,75.52
2022-10-31T00:30:26.369Z,75.52
2022-10-31T00:31:26.562Z,75.42
2022-10-31T00:32:26.750Z,75.22
2022-10-31T00:33:26.940Z,75.32
2022-10-31T00:34:27.095Z,75.73
2022-10-31T00:35:27.279Z,75.42
2022-10-31T00:36:27.459Z,75.42
2022-10-31T00:37:27.641Z,75.93
2022-10-31T00:38:27.848Z,75.93
2022-10-31T00:39:27.999Z,75.22
2022-10-31T00:40:28.178Z,75.32
2022-10-31T00:41:28.368Z,75.62
2022-10-31T00:42:28.549Z,76.13
2022-10-31T00:43:28.759Z,75.73
2022-10-31T00:44:28.910Z,75.82
2022-10-31T00:45:29.109Z,75.93
2022-10-31T00:46:29.268Z,75.93
2022-10-31T00:47:29.421Z,75.93
2022-10-31T00:48:29.630Z,76.54
2022-10-31T00:49:29.779Z,76.43
2022-10-31T00:50:29.941Z,75.93
2022-10-31T00:51:30.129Z,75.52
2022-10-31T00:52:30.309Z,75.25
2022-10-31T00:53:30.508Z,75.15
2022-10-31T00:54:30.670Z,75.25
2022-10-31T00:55:30.850Z,75.25
2022-10-31T00:56:31.030Z,74.85
2022-10-31T00:57:31.195Z,74.74
2022-10-31T00:58:31.398Z,74.65
2022-10-31T00:59:31.546Z,75.46
2022-10-31T01:00:31.731Z,75.25
2022-10-31T01:01:32.065Z,75.25
2022-10-31T01:02:32.205Z,75.25
2022-10-31T01:03:32.290Z,75.05
2022-10-31T01:04:32.439Z,74.95
2022-10-31T01:05:32.620Z,75.56
2022-10-31T01:06:32.812Z,75.35
2022-10-31T01:07:33.001Z,75.76
2022-10-31T01:08:33.201Z,76.17
2022-10-31T01:09:33.376Z,75.76
2022-10-31T01:10:33.549Z,75.86
2022-10-31T01:11:33.709Z,75.35
2022-10-31T01:12:33.879Z,75.46
2022-10-31T01:13:34.080Z,75.56
2022-10-31T01:14:34.207Z,75.56
2022-10-31T01:15:34.387Z,75.96
2022-10-31T01:16:34.568Z,76.27
2022-10-31T01:17:34.777Z,76.47
2022-10-31T01:18:34.928Z,76.37
2022-10-31T01:19:35.116Z,76.57
2022-10-31T01:20:35.305Z,76.17
2022-10-31T01:21:35.487Z,76.27
2022-10-31T01:22:35.689Z,76.27
2022-10-31T01:23:35.842Z,76.00
2022-10-31T01:24:36.029Z,76.10
2022-10-31T01:25:36.210Z,75.90
2022-10-31T01:26:36.398Z,75.59
2022-10-31T01:27:36.600Z,76.51
2022-10-31T01:28:36.749Z,76.10
2022-10-31T01:29:36.938Z,76.31
2022-10-31T01:30:37.120Z,76.40
2022-10-31T01:31:37.307Z,76.40
2022-10-31T01:32:37.510Z,76.10
2022-10-31T01:33:37.660Z,76.10
2022-10-31T01:34:37.849Z,76.20
2022-10-31T01:35:38.038Z,76.00
2022-10-31T01:36:38.219Z,75.59
2022-10-31T01:37:38.419Z,75.39
2022-10-31T01:38:38.569Z,75.29
2022-10-31T01:39:38.759Z,75.79
2022-10-31T01:40:38.940Z,75.90
2022-10-31T01:41:39.127Z,76.00
2022-10-31T01:42:39.318Z,75.70
2022-10-31T01:43:39.479Z,75.39
2022-10-31T01:44:39.666Z,75.59
2022-10-31T01:45:39.848Z,75.59
2022-10-31T01:46:39.999Z,75.59
2022-10-31T01:47:40.199Z,75.29
2022-10-31T01:48:42.235Z,75.49
2022-10-31T01:49:40.509Z,75.49
2022-10-31T01:50:40.698Z,75.09
2022-10-31T01:51:40.878Z,75.49
2022-10-31T01:52:41.078Z,76.00
2022-10-31T01:53:41.230Z,76.51
2022-10-31T01:54:41.428Z,76.71
2022-10-31T01:55:41.589Z,76.40
2022-10-31T01:56:41.771Z,75.90
2022-10-31T01:57:41.970Z,76.00
2022-10-31T01:58:42.120Z,76.00
2022-10-31T01:59:42.310Z,75.79
2022-10-31T02:00:42.564Z,76.31
2022-10-31T02:01:42.789Z,76.81
2022-10-31T02:02:42.957Z,76.71
2022-10-31T02:03:42.959Z,76.10
2022-10-31T02:04:43.139Z,76.03
2022-10-31T02:05:43.328Z,76.14
2022-10-31T02:06:43.510Z,75.73
2022-10-31T02:07:43.714Z,75.83
2022-10-31T02:08:43.859Z,75.83
2022-10-31T02:09:44.055Z,75.83
2022-10-31T02:10:44.199Z,75.63
2022-10-31T02:11:44.390Z,76.03
2022-10-31T02:12:44.579Z,76.14
2022-10-31T02:13:44.751Z,76.14
2022-10-31T02:14:44.919Z,75.63
2022-10-31T02:15:45.096Z,75.73
2022-10-31T02:16:45.279Z,75.63
2022-10-31T02:17:45.487Z,76.14
2022-10-31T02:18:45.619Z,76.44
2022-10-31T02:19:45.789Z,76.44
2022-10-31T02:20:45.962Z,76.44
2022-10-31T02:21:46.145Z,75.93
2022-10-31T02:22:46.319Z,75.83
2022-10-31T02:23:49.449Z,75.63
2022-10-31T02:24:46.676Z,75.83
2022-10-31T02:25:46.857Z,75.52
2022-10-31T02:26:47.019Z,75.32
2022-10-31T02:27:47.228Z,75.43
2022-10-31T02:28:47.359Z,75.02
2022-10-31T02:29:47.541Z,74.82
2022-10-31T02:30:47.711Z,74.82
2022-10-31T02:31:47.902Z,74.92
2022-10-31T02:32:48.090Z,74.82
2022-10-31T02:33:48.229Z,74.62
2022-10-31T02:34:48.406Z,75.12
2022-10-31T02:35:48.578Z,75.02
2022-10-31T02:36:48.749Z,75.02
2022-10-31T02:37:48.938Z,75.22
2022-10-31T02:38:49.107Z,75.76
2022-10-31T02:39:49.280Z,76.37
2022-10-31T02:40:49.463Z,77.19
2022-10-31T02:41:49.649Z,77.39
2022-10-31T02:42:49.788Z,77.19
2022-10-31T02:43:49.958Z,77.80
2022-10-31T02:44:50.130Z,77.80
2022-10-31T02:45:50.299Z,78.30
2022-10-31T02:46:50.485Z,78.71
2022-10-31T02:47:50.658Z,78.71
2022-10-31T02:48:50.838Z,78.20
2022-10-31T02:49:51.017Z,78.41
2022-10-31T02:50:51.188Z,77.86
2022-10-31T02:51:51.405Z,77.56
2022-10-31T02:52:51.559Z,77.66
2022-10-31T02:53:51.728Z,77.36
2022-10-31T02:54:51.898Z,76.85
2022-10-31T02:55:52.076Z,76.64
2022-10-31T02:56:52.267Z,76.64
2022-10-31T02:57:52.437Z,76.44
2022-10-31T02:58:52.600Z,76.54
2022-10-31T02:59:52.779Z,76.34
2022-10-31T03:00:53.164Z,76.14
2022-10-31T03:01:53.251Z,76.54
2022-10-31T03:02:53.288Z,76.44
2022-10-31T03:03:53.458Z,77.15
2022-10-31T03:04:53.626Z,76.64
2022-10-31T03:05:53.798Z,76.85
2022-10-31T03:06:53.985Z,76.95
2022-10-31T03:07:54.158Z,76.34
2022-10-31T03:08:54.326Z,76.34
2022-10-31T03:09:54.498Z,76.24
2022-10-31T03:10:54.667Z,76.24
2022-10-31T03:11:54.848Z,75.83
2022-10-31T03:12:55.022Z,76.14
2022-10-31T03:13:55.198Z,76.34
2022-10-31T03:14:55.357Z,76.24
2022-10-31T03:15:55.538Z,76.44
2022-10-31T03:16:55.729Z,76.54
2022-10-31T03:17:55.897Z,76.75
2022-10-31T03:18:56.065Z,76.95
2022-10-31T03:19:56.238Z,76.85
2022-10-31T03:20:56.410Z,76.75
2022-10-31T03:21:56.598Z,76.44
2022-10-31T03:22:56.770Z,76.24
2022-10-31T03:23:56.952Z,76.24
2022-10-31T03:24:57.120Z,76.03
2022-10-31T03:25:57.288Z,76.34
2022-10-31T03:26:57.481Z,76.44
2022-10-31T03:27:58.129Z,76.24
2022-10-31T03:28:57.820Z,76.24
2022-10-31T03:29:57.988Z,75.93
2022-10-31T03:30:58.167Z,76.64
2022-10-31T03:31:58.358Z,76.85
2022-10-31T03:32:58.884Z,77.66
2022-10-31T03:33:58.668Z,77.70
2022-10-31T03:34:58.837Z,77.15
2022-10-31T03:35:59.033Z,77.70
2022-10-31T03:36:59.198Z,77.56
2022-10-31T03:38:01.763Z,77.25
2022-10-31T03:38:59.550Z,77.15
2022-10-31T03:39:59.725Z,77.25
2022-10-31T03:40:59.907Z,77.76
2022-10-31T03:42:00.090Z,78.06
2022-10-31T03:43:00.505Z,78.37
2022-10-31T03:44:00.427Z,78.27
2022-10-31T03:45:00.606Z,77.97
2022-10-31T03:46:00.795Z,77.86
2022-10-31T03:47:00.968Z,77.76
2022-10-31T03:48:01.423Z,77.66
2022-10-31T03:49:01.328Z,77.66
2022-10-31T03:50:01.499Z,77.66
2022-10-31T03:51:01.711Z,77.56
2022-10-31T03:52:01.848Z,77.25
2022-10-31T03:53:02.018Z,77.25
2022-10-31T03:54:02.209Z,77.36
2022-10-31T03:55:02.372Z,77.25
2022-10-31T03:56:02.561Z,77.36
2022-10-31T03:57:02.700Z,77.36
2022-10-31T03:58:03.480Z,77.05
2022-10-31T03:59:03.030Z,77.36
2022-10-31T04:00:03.219Z,77.56
2022-10-31T04:01:03.640Z,77.97
2022-10-31T04:02:03.640Z,77.97
2022-10-31T04:03:03.865Z,77.86
2022-10-31T04:04:03.893Z,77.66
2022-10-31T04:05:04.060Z,77.32
2022-10-31T04:06:04.283Z,78.03
2022-10-31T04:07:04.409Z,77.45
2022-10-31T04:08:04.578Z,77.36
2022-10-31T04:09:04.747Z,77.66
2022-10-31T04:10:04.917Z,77.66
2022-10-31T04:11:05.096Z,78.17
2022-10-31T04:12:05.258Z,77.86
2022-10-31T04:13:05.464Z,77.86
2022-10-31T04:14:05.616Z,77.66
2022-10-31T04:15:05.797Z,77.56
2022-10-31T04:16:05.986Z,77.25
2022-10-31T04:17:06.150Z,77.25
2022-10-31T04:18:06.317Z,77.25
2022-10-31T04:19:06.489Z,77.36
2022-10-31T04:20:06.658Z,77.05
2022-10-31T04:21:06.838Z,76.81
2022-10-31T04:22:07.017Z,77.01
2022-10-31T04:23:08.916Z,76.71
2022-10-31T04:24:08.347Z,76.71
2022-10-31T04:25:07.508Z,76.61
2022-10-31T04:26:07.700Z,76.61
2022-10-31T04:27:07.869Z,76.71
2022-10-31T04:28:08.123Z,76.51
2022-10-31T04:29:08.198Z,76.61
2022-10-31T04:30:08.372Z,76.40
2022-10-31T04:31:08.557Z,76.40
2022-10-31T04:32:08.736Z,76.31
2022-10-31T04:33:08.898Z,76.10
2022-10-31T04:34:09.067Z,76.31
2022-10-31T04:35:09.237Z,76.31
2022-10-31T04:36:09.429Z,76.31
2022-10-31T04:37:09.568Z,76.40
2022-10-31T04:38:09.731Z,76.10
2022-10-31T04:39:09.897Z,76.00
2022-10-31T04:40:10.065Z,76.00
2022-10-31T04:41:10.247Z,76.10
2022-10-31T04:42:10.418Z,76.40
2022-10-31T04:43:10.633Z,76.31
2022-10-31T04:44:10.756Z,76.31
2022-10-31T04:45:12.500Z,76.10
2022-10-31T04:46:11.111Z,76.10
2022-10-31T04:47:11.237Z,76.00
2022-10-31T04:48:11.420Z,76.00
2022-10-31T04:49:11.584Z,76.00
2022-10-31T04:50:11.756Z,75.90
2022-10-31T04:51:11.949Z,75.79
2022-10-31T04:52:12.116Z,75.59
2022-10-31T04:53:12.297Z,75.59
2022-10-31T04:54:12.464Z,75.70
2022-10-31T04:55:12.627Z,75.59
2022-10-31T04:56:12.818Z,75.59
2022-10-31T04:57:12.989Z,75.79
2022-10-31T04:58:13.201Z,75.70
2022-10-31T04:59:13.327Z,75.79
2022-10-31T05:00:13.513Z,75.70
2022-10-31T05:01:13.842Z,75.79
2022-10-31T05:02:14.020Z,75.90
2022-10-31T05:03:14.067Z,75.90
2022-10-31T05:04:14.237Z,75.70
2022-10-31T05:05:14.406Z,75.70
2022-10-31T05:06:14.597Z,75.79
2022-10-31T05:07:14.742Z,75.90
2022-10-31T05:08:14.917Z,75.79
2022-10-31T05:09:15.087Z,75.70
2022-10-31T05:10:15.269Z,75.79
2022-10-31T05:11:15.457Z,76.00
2022-10-31T05:12:15.627Z,76.31
2022-10-31T05:13:15.838Z,76.20
2022-10-31T05:14:15.988Z,75.70
2022-10-31T05:15:16.157Z,75.79
2022-10-31T05:16:16.346Z,75.79
2022-10-31T05:17:16.486Z,75.59
2022-10-31T05:18:16.657Z,75.49
2022-10-31T05:19:16.835Z,75.49
2022-10-31T05:20:17.007Z,75.49
2022-10-31T05:21:17.198Z,75.70
2022-10-31T05:22:17.337Z,75.90
2022-10-31T05:23:17.523Z,75.70
2022-10-31T05:24:17.685Z,75.70
2022-10-31T05:25:17.855Z,75.79
2022-10-31T05:26:18.026Z,76.00
2022-10-31T05:27:18.205Z,75.79
2022-10-31T05:28:18.396Z,75.70
2022-10-31T05:29:18.528Z,75.79
2022-10-31T05:30:18.705Z,75.59
2022-10-31T05:31:18.888Z,75.79
2022-10-31T05:32:19.056Z,75.90
2022-10-31T05:33:19.249Z,75.59
2022-10-31T05:34:19.415Z,75.79
2022-10-31T05:35:19.586Z,75.70
2022-10-31T05:36:19.777Z,75.79
2022-10-31T05:37:19.916Z,75.90
2022-10-31T05:38:20.096Z,75.70
2022-10-31T05:39:20.257Z,75.79
2022-10-31T05:40:20.415Z,75.59
2022-10-31T05:41:20.586Z,75.59
2022-10-31T05:42:20.746Z,75.49
2022-10-31T05:43:20.936Z,75.29
2022-10-31T05:44:21.097Z,75.49
2022-10-31T05:45:21.247Z,75.39
2022-10-31T05:46:21.548Z,75.49
2022-10-31T05:47:21.586Z,75.70
2022-10-31T05:48:21.788Z,75.59
2022-10-31T05:49:21.936Z,75.59
2022-10-31T05:50:22.156Z,75.59
2022-10-31T05:51:22.312Z,75.49
2022-10-31T05:52:22.468Z,75.59
2022-10-31T05:53:22.629Z,75.39
2022-10-31T05:54:22.812Z,75.70
2022-10-31T05:55:23.006Z,75.59
2022-10-31T05:56:23.158Z,76.10
2022-10-31T05:57:23.346Z,75.70
2022-10-31T05:58:23.536Z,75.79
2022-10-31T05:59:23.729Z,75.79
2022-10-31T06:00:23.907Z,75.70
2022-10-31T06:01:24.095Z,75.79
2022-10-31T06:02:24.220Z,76.00
2022-10-31T06:03:24.406Z,76.00
2022-10-31T06:04:24.602Z,75.70
2022-10-31T06:05:24.786Z,75.59
2022-10-31T06:06:24.947Z,76.00
2022-10-31T06:07:25.114Z,75.79
2022-10-31T06:08:25.266Z,76.00
2022-10-31T06:09:25.462Z,75.90
2022-10-31T06:10:25.677Z,75.70
2022-10-31T06:11:25.837Z,75.49
2022-10-31T06:12:25.986Z,75.39
2022-10-31T06:13:26.176Z,75.35
2022-10-31T06:14:26.336Z,75.66
2022-10-31T06:15:26.536Z,75.46
2022-10-31T06:16:26.696Z,75.46
2022-10-31T06:17:26.936Z,75.25
2022-10-31T06:18:27.047Z,75.35
2022-10-31T06:19:27.237Z,75.35
2022-10-31T06:20:27.410Z,75.15
2022-10-31T06:21:27.567Z,74.85
2022-10-31T06:22:27.757Z,74.85
2022-10-31T06:23:27.947Z,74.81
2022-10-31T06:24:28.096Z,75.12
2022-10-31T06:25:28.322Z,75.22
2022-10-31T06:26:28.470Z,74.91
2022-10-31T06:27:28.633Z,74.71
2022-10-31T06:28:28.808Z,74.71
2022-10-31T06:29:29.004Z,74.71
2022-10-31T06:30:29.189Z,74.71
2022-10-31T06:31:29.371Z,74.61
2022-10-31T06:32:29.534Z,74.68
2022-10-31T06:33:29.725Z,74.48
2022-10-31T06:34:29.887Z,75.18
2022-10-31T06:35:30.088Z,74.88
2022-10-31T06:36:30.242Z,74.68
2022-10-31T06:37:30.426Z,74.57
2022-10-31T06:38:30.576Z,74.77
2022-10-31T06:39:30.776Z,74.44
2022-10-31T06:40:30.945Z,74.24
2022-10-31T06:41:31.107Z,74.33
2022-10-31T06:42:31.266Z,74.13
2022-10-31T06:43:31.449Z,74.04
2022-10-31T06:44:31.636Z,74.13
2022-10-31T06:45:31.815Z,73.69
2022-10-31T06:46:31.970Z,73.59
2022-10-31T06:47:32.473Z,73.59
2022-10-31T06:48:32.326Z,73.49
2022-10-31T06:49:32.488Z,73.36
2022-10-31T06:50:32.665Z,73.25
2022-10-31T06:51:32.816Z,73.15
2022-10-31T06:52:32.980Z,73.15
2022-10-31T06:53:33.177Z,73.02
2022-10-31T06:54:33.328Z,73.02
2022-10-31T06:55:33.538Z,72.92
2022-10-31T06:56:33.717Z,72.61
2022-10-31T06:57:33.876Z,72.48
2022-10-31T06:58:34.037Z,72.48
2022-10-31T06:59:34.196Z,72.28
2022-10-31T07:00:34.377Z,72.28
2022-10-31T07:01:34.664Z,72.28
2022-10-31T07:02:34.740Z,72.14
2022-10-31T07:03:34.867Z,71.84
2022-10-31T07:04:35.016Z,72.04
2022-10-31T07:05:35.196Z,72.04
2022-10-31T07:06:35.370Z,72.04
2022-10-31T07:07:35.546Z,71.94
2022-10-31T07:08:35.728Z,71.80
2022-10-31T07:09:35.877Z,71.80
2022-10-31T07:10:40.113Z,71.70
2022-10-31T07:11:36.226Z,71.70
2022-10-31T07:12:36.397Z,71.26
2022-10-31T07:13:36.562Z,71.47
2022-10-31T07:14:36.735Z,70.96
2022-10-31T07:15:36.908Z,71.17
2022-10-31T07:16:37.062Z,71.03
2022-10-31T07:17:37.261Z,70.42
2022-10-31T07:18:37.416Z,70.73
2022-10-31T07:19:37.578Z,70.62
2022-10-31T07:20:37.747Z,70.62
2022-10-31T07:21:37.909Z,70.69
2022-10-31T07:22:38.067Z,70.69
2022-10-31T07:23:38.228Z,70.79
2022-10-31T07:24:38.390Z,70.89
2022-10-31T07:25:38.567Z,70.89
2022-10-31T07:26:38.719Z,70.59
2022-10-31T07:27:41.722Z,70.29
2022-10-31T07:28:39.047Z,70.59
2022-10-31T07:29:39.217Z,70.49
2022-10-31T07:30:39.387Z,70.46
2022-10-31T07:31:39.546Z,69.55
2022-10-31T07:32:39.708Z,70.06
2022-10-31T07:33:39.867Z,69.62
2022-10-31T07:34:44.863Z,69.09
2022-10-31T07:35:41.216Z,68.15
2022-10-31T07:36:40.377Z,67.94
2022-10-31T07:37:40.538Z,67.94
2022-10-31T07:38:40.698Z,67.51
2022-10-31T07:39:40.857Z,67.41
2022-10-31T07:40:41.028Z,67.61
2022-10-31T07:41:41.187Z,67.41
2022-10-31T07:42:41.349Z,67.18
2022-10-31T07:43:41.564Z,66.77
2022-10-31T07:44:41.659Z,66.77
2022-10-31T07:45:41.875Z,66.17
2022-10-31T07:46:42.017Z,66.37
2022-10-31T07:47:42.193Z,66.87
2022-10-31T07:48:42.347Z,66.87
2022-10-31T07:49:42.517Z,66.91
2022-10-31T07:50:42.690Z,67.21
2022-10-31T07:51:46.433Z,67.31
2022-10-31T07:52:43.032Z,67.64
2022-10-31T07:53:43.191Z,67.74
2022-10-31T07:54:43.350Z,68.04
2022-10-31T07:55:43.518Z,67.54
2022-10-31T07:56:43.678Z,68.48
2022-10-31T07:57:43.842Z,68.58
2022-10-31T07:58:43.999Z,68.88
2022-10-31T07:59:44.166Z,68.78
2022-10-31T08:00:44.434Z,68.98
2022-10-31T08:01:44.488Z,68.88
2022-10-31T08:02:44.649Z,68.98
2022-10-31T08:03:44.849Z,69.18
2022-10-31T08:04:44.999Z,68.88
2022-10-31T08:05:45.218Z,68.88
2022-10-31T08:06:45.359Z,68.88
2022-10-31T08:07:45.537Z,68.78
2022-10-31T08:08:45.689Z,68.68
2022-10-31T08:09:45.885Z,68.68
2022-10-31T08:10:46.059Z,68.58
2022-10-31T08:11:46.219Z,68.78
2022-10-31T08:12:46.388Z,68.48
2022-10-31T08:13:46.562Z,68.78
2022-10-31T08:14:46.710Z,68.28
2022-10-31T08:15:46.923Z,67.68
2022-10-31T08:16:47.110Z,68.18
2022-10-31T08:17:47.249Z,68.55
2022-10-31T08:18:47.419Z,68.65
2022-10-31T08:19:47.614Z,68.35
2022-10-31T08:20:47.781Z,67.51
2022-10-31T08:21:47.940Z,67.47
2022-10-31T08:22:48.109Z,66.81
2022-10-31T08:23:48.271Z,65.67
2022-10-31T08:24:48.468Z,65.27
2022-10-31T08:25:48.621Z,64.74
2022-10-31T08:26:48.788Z,64.64
2022-10-31T08:27:48.951Z,64.71
2022-10-31T08:28:49.108Z,63.84
2022-10-31T08:29:49.269Z,63.01
2022-10-31T08:30:49.441Z,61.45
2022-10-31T08:31:49.607Z,60.32
2022-10-31T08:32:49.761Z,60.29
2022-10-31T08:33:49.946Z,59.83
2022-10-31T08:34:50.113Z,58.88
2022-10-31T08:35:50.322Z,56.33
2022-10-31T08:36:50.460Z,55.68
2022-10-31T08:37:50.650Z,54.36
2022-10-31T08:38:50.814Z,54.13
2022-10-31T08:39:50.982Z,54.11
2022-10-31T08:40:51.156Z,53.61
2022-10-31T08:41:51.322Z,52.99
2022-10-31T08:42:51.483Z,52.94
2022-10-31T08:43:51.642Z,54.75
2022-10-31T08:44:51.801Z,55.58
2022-10-31T08:45:51.983Z,54.68
2022-10-31T08:46:52.140Z,54.46
2022-10-31T08:47:52.395Z,54.38
2022-10-31T08:48:52.492Z,54.79
2022-10-31T08:49:52.682Z,53.91
2022-10-31T08:50:52.862Z,54.51
2022-10-31T08:51:53.012Z,55.24
2022-10-31T08:53:04.660Z,56.06
2022-10-31T08:53:54.343Z,56.36
2022-10-31T08:54:53.522Z,56.43
2022-10-31T08:55:53.702Z,55.88
2022-10-31T08:56:53.874Z,54.43
2022-10-31T08:57:54.053Z,53.11
2022-10-31T08:58:54.234Z,53.16
2022-10-31T08:59:54.417Z,52.54
2022-10-31T09:00:54.659Z,51.92
2022-10-31T09:01:55.003Z,51.30
2022-10-31T09:02:54.923Z,50.28
2022-10-31T09:03:55.113Z,50.06
2022-10-31T09:04:55.295Z,49.86
2022-10-31T09:05:55.566Z,49.44
2022-10-31T09:07:24.844Z,49.05
2022-10-31T09:07:56.923Z,49.52
2022-10-31T09:08:56.019Z,48.92
2022-10-31T09:09:56.204Z,48.70
2022-10-31T09:10:56.385Z,48.63
2022-10-31T09:11:56.545Z,47.74
2022-10-31T09:12:56.732Z,48.03
2022-10-31T09:13:56.939Z,47.93
2022-10-31T09:14:57.086Z,47.41
2022-10-31T09:15:57.295Z,48.01
2022-10-31T09:16:57.446Z,47.69
2022-10-31T09:17:57.876Z,47.29
2022-10-31T09:18:57.803Z,47.39
2022-10-31T09:19:57.998Z,47.78
2022-10-31T09:20:58.141Z,47.91
2022-10-31T09:21:58.324Z,48.63
2022-10-31T09:22:58.492Z,49.46
2022-10-31T09:23:58.666Z,50.11
2022-10-31T09:24:58.857Z,51.03
2022-10-31T09:25:59.020Z,51.67
2022-10-31T09:26:59.178Z,52.19
2022-10-31T09:27:59.968Z,53.31
2022-10-31T09:28:59.546Z,53.94
2022-10-31T09:29:59.717Z,54.98
2022-10-31T09:30:59.874Z,54.91
2022-10-31T09:32:00.059Z,56.13
2022-10-31T09:33:00.218Z,56.43
2022-10-31T09:34:00.407Z,56.83
2022-10-31T09:35:00.625Z,56.56
2022-10-31T09:36:00.750Z,57.35
2022-10-31T09:37:00.917Z,57.86
2022-10-31T09:38:01.484Z,58.06
2022-10-31T09:39:01.271Z,57.65
2022-10-31T09:40:01.491Z,57.95
2022-10-31T09:41:01.638Z,58.48
2022-10-31T09:42:01.844Z,58.28
2022-10-31T09:43:01.992Z,58.68
2022-10-31T09:44:02.169Z,59.01
2022-10-31T09:45:02.350Z,58.71
2022-10-31T09:46:02.518Z,58.91
2022-10-31T09:47:02.679Z,59.31
2022-10-31T09:48:03.251Z,59.41
2022-10-31T09:49:03.001Z,59.64
2022-10-31T09:50:03.186Z,59.34
2022-10-31T09:51:03.353Z,59.74
2022-10-31T09:52:03.552Z,59.53
2022-10-31T09:53:03.899Z,59.14
2022-10-31T09:54:03.860Z,59.44
2022-10-31T09:55:04.040Z,59.74
2022-10-31T09:56:04.187Z,59.74
2022-10-31T09:57:04.381Z,59.44
2022-10-31T09:58:04.539Z,59.44
2022-10-31T09:59:04.703Z,59.94
2022-10-31T10:00:04.886Z,59.94
2022-10-31T10:01:05.152Z,59.64
2022-10-31T10:02:05.280Z,59.74
2022-10-31T10:03:05.370Z,59.64
2022-10-31T10:04:05.561Z,59.04
2022-10-31T10:05:05.761Z,59.34
2022-10-31T10:06:05.936Z,59.94
2022-10-31T10:07:06.130Z,60.03
2022-10-31T10:08:06.292Z,59.83
2022-10-31T10:09:06.493Z,60.24
2022-10-31T10:10:06.674Z,60.16
2022-10-31T10:11:06.849Z,60.57
2022-10-31T10:12:07.012Z,60.46
2022-10-31T10:13:09.350Z,60.66
2022-10-31T10:14:07.381Z,60.96
2022-10-31T10:15:07.591Z,60.86
2022-10-31T10:16:07.752Z,60.77
2022-10-31T10:17:07.925Z,60.96
2022-10-31T10:18:08.089Z,60.96
2022-10-31T10:19:08.249Z,61.16
2022-10-31T10:20:08.471Z,61.36
2022-10-31T10:21:08.592Z,61.36
2022-10-31T10:22:08.826Z,61.46
2022-10-31T10:23:08.944Z,61.46
2022-10-31T10:24:09.100Z,61.76
2022-10-31T10:25:09.283Z,61.66
2022-10-31T10:26:11.372Z,61.96
2022-10-31T10:27:09.623Z,61.46
2022-10-31T10:28:09.782Z,61.16
2022-10-31T10:29:09.952Z,61.26
2022-10-31T10:30:10.142Z,61.40
2022-10-31T10:31:10.313Z,61.79
2022-10-31T10:32:10.484Z,61.89
2022-10-31T10:33:10.664Z,61.99
2022-10-31T10:34:10.834Z,62.09
2022-10-31T10:35:11.023Z,62.42
2022-10-31T10:36:11.184Z,62.22
2022-10-31T10:37:11.361Z,61.82
2022-10-31T10:38:11.533Z,62.02
2022-10-31T10:39:11.713Z,62.22
2022-10-31T10:40:11.884Z,62.52
2022-10-31T10:41:12.053Z,62.62
2022-10-31T10:42:12.309Z,62.70
2022-10-31T10:43:12.419Z,62.59
2022-10-31T10:44:12.575Z,62.79
2022-10-31T10:45:12.765Z,62.59
2022-10-31T10:46:12.934Z,62.39
2022-10-31T10:47:13.126Z,62.29
2022-10-31T10:48:13.295Z,62.70
2022-10-31T10:49:13.464Z,62.70
2022-10-31T10:50:13.656Z,62.29
2022-10-31T10:51:25.645Z,62.49
2022-10-31T10:53:15.204Z,62.49
2022-10-31T10:54:14.379Z,63.19
2022-10-31T10:55:14.576Z,62.89
2022-10-31T10:56:14.734Z,62.89
2022-10-31T10:57:14.896Z,62.70
2022-10-31T10:58:15.077Z,62.89
2022-10-31T10:59:15.257Z,63.42
2022-10-31T11:00:15.437Z,63.53
2022-10-31T11:02:15.805Z,63.72
2022-10-31T11:03:15.979Z,63.82
2022-10-31T11:04:16.146Z,64.22
2022-10-31T11:05:16.337Z,63.62
2022-10-31T11:06:16.499Z,63.92
2022-10-31T11:07:16.676Z,64.22
2022-10-31T11:08:16.847Z,64.03
2022-10-31T11:09:17.030Z,63.72
2022-10-31T11:10:17.208Z,64.52
2022-10-31T11:11:17.402Z,64.03
2022-10-31T11:12:17.556Z,64.03
2022-10-31T11:13:17.735Z,63.92
2022-10-31T11:14:17.910Z,64.32
2022-10-31T11:15:18.097Z,64.72
2022-10-31T11:16:18.267Z,64.86
2022-10-31T11:17:18.447Z,64.95
2022-10-31T11:18:18.657Z,64.95
2022-10-31T11:19:18.810Z,65.25
2022-10-31T11:20:19.326Z,64.86
2022-10-31T11:21:19.170Z,64.95
2022-10-31T11:22:19.351Z,65.36
2022-10-31T11:23:19.539Z,65.25
2022-10-31T11:24:19.718Z,65.05
2022-10-31T11:25:19.898Z,64.95
2022-10-31T11:26:20.058Z,65.05
2022-10-31T11:27:20.246Z,64.86
2022-10-31T11:28:20.419Z,65.16
2022-10-31T11:29:20.599Z,65.36
2022-10-31T11:30:20.789Z,65.25
2022-10-31T11:31:20.967Z,65.36
2022-10-31T11:32:21.138Z,65.36
2022-10-31T11:33:21.319Z,65.45
2022-10-31T11:34:21.489Z,65.16
2022-10-31T11:35:21.679Z,65.25
2022-10-31T11:36:21.851Z,65.05
2022-10-31T11:37:22.028Z,65.25
2022-10-31T11:38:22.229Z,65.59
2022-10-31T11:39:22.388Z,65.59
2022-10-31T11:40:22.580Z,65.78
2022-10-31T11:41:22.762Z,65.78
2022-10-31T11:42:22.939Z,66.22
2022-10-31T11:43:23.110Z,66.12
2022-10-31T11:44:23.291Z,66.12
2022-10-31T11:45:23.494Z,66.52
2022-10-31T11:46:23.622Z,66.62
2022-10-31T11:47:23.801Z,66.75
2022-10-31T11:48:23.981Z,66.95
2022-10-31T11:49:24.161Z,66.85
2022-10-31T11:50:24.350Z,66.75
2022-10-31T11:51:24.524Z,67.15
2022-10-31T11:52:24.690Z,67.15
2022-10-31T11:53:24.870Z,67.35
2022-10-31T11:54:25.041Z,67.38
2022-10-31T11:55:25.252Z,67.38
2022-10-31T11:56:25.381Z,67.49
2022-10-31T11:57:25.550Z,67.49
2022-10-31T11:58:25.723Z,67.69
2022-10-31T11:59:25.901Z,67.58
2022-10-31T12:00:26.089Z,67.69
2022-10-31T12:01:26.296Z,67.58
2022-10-31T12:02:26.497Z,67.88
2022-10-31T12:03:26.592Z,67.58
2022-10-31T12:04:26.781Z,67.88
2022-10-31T12:05:26.990Z,67.88
2022-10-31T12:06:27.141Z,67.49
2022-10-31T12:07:27.329Z,67.69
2022-10-31T12:08:27.492Z,67.79
2022-10-31T12:09:27.672Z,67.69
2022-10-31T12:10:27.842Z,67.55
2022-10-31T12:11:28.023Z,67.45
2022-10-31T12:12:28.191Z,67.65
2022-10-31T12:13:28.362Z,67.25
2022-10-31T12:14:28.564Z,67.15
2022-10-31T12:15:28.722Z,66.95
2022-10-31T12:16:28.911Z,67.05
2022-10-31T12:17:29.073Z,67.05
2022-10-31T12:18:29.242Z,66.75
2022-10-31T12:19:29.442Z,66.85
2022-10-31T12:20:29.621Z,66.75
2022-10-31T12:21:29.805Z,66.75
2022-10-31T12:22:29.973Z,66.85
2022-10-31T12:23:30.153Z,67.05
2022-10-31T12:24:30.353Z,66.95
2022-10-31T12:25:30.492Z,66.95
2022-10-31T12:26:30.663Z,66.95
2022-10-31T12:27:30.849Z,67.15
2022-10-31T12:28:31.014Z,67.35
2022-10-31T12:29:31.203Z,67.55
2022-10-31T12:30:31.363Z,67.45
2022-10-31T12:31:31.537Z,67.45
2022-10-31T12:32:31.726Z,67.55
2022-10-31T12:33:31.885Z,67.45
2022-10-31T12:34:32.056Z,67.55
2022-10-31T12:35:32.277Z,67.69
2022-10-31T12:36:32.415Z,67.79
2022-10-31T12:37:32.605Z,67.99
2022-10-31T12:38:32.768Z,67.79
2022-10-31T12:39:32.954Z,67.88
2022-10-31T12:40:33.120Z,68.19
2022-10-31T12:41:34.676Z,68.29
2022-10-31T12:42:33.505Z,68.59
2022-10-31T12:43:33.632Z,68.49
2022-10-31T12:44:33.846Z,68.49
2022-10-31T12:45:33.976Z,67.88
2022-10-31T12:46:34.154Z,68.29
2022-10-31T12:47:34.325Z,67.88
2022-10-31T12:48:34.507Z,67.76
2022-10-31T12:49:34.705Z,67.88
2022-10-31T12:50:34.865Z,67.99
2022-10-31T12:51:35.038Z,68.08
2022-10-31T12:52:35.235Z,68.39
2022-10-31T12:53:35.382Z,68.39
2022-10-31T12:54:35.555Z,68.19
2022-10-31T12:55:35.715Z,68.26
2022-10-31T12:56:35.897Z,67.88